Weather reports worldwide

Advertisment
Kinbrace, United Kingdom (99016): temperature & dewpoint: 22.02.2017 14:00:00 - 28.02.2017 14:00:00 (GMT)Kinbrace, United Kingdom (99016): wind speed & gusts: 22.02.2017 14:00:00 - 28.02.2017 14:00:00 (GMT)Kinbrace, United Kingdom (99016): wind direction: 22.02.2017 14:00:00 - 28.02.2017 14:00:00 (GMT)Kinbrace, United Kingdom (99016): precipitation: 22.02.2017 14:00:00 - 28.02.2017 14:00:00 (GMT)
Date & Time tt [°C] td [°C] ff [km/h] ff [kn] fx [km/h] fx [kn] dd rr [mm]
28.02.2017 14:00:00 - - - - - - - -
28.02.2017 13:00:00 6,1 1,2 24 13 - - N 0,0
28.02.2017 12:00:00 5,1 1,6 13 7 46 25 N 0,0
28.02.2017 11:00:00 3,9 1,4 4 2 - - SSW 0,2
28.02.2017 10:00:00 0,6 0,1 2 1 - - N 0,0
28.02.2017 09:00:00 -3,2 -3,3 0 0 - - N 0,0
28.02.2017 08:00:00 -7,2 -7,9 0 0 - - N 0,0
28.02.2017 07:00:00 -7,8 -8,7 0 0 - - N 0,0
28.02.2017 06:00:00 -7,5 -8,5 0 0 - - N 0,0
28.02.2017 05:00:00 -7,1 -7,8 0 0 - - N 0,0
28.02.2017 04:00:00 -6,5 -7,2 4 2 - - E 0,0
28.02.2017 03:00:00 -5,2 -5,8 4 2 - - SSE 0,0
28.02.2017 02:00:00 -5,4 -6,1 0 0 - - N 0,0
28.02.2017 01:00:00 -4,0 -4,8 2 1 - - SSE 0,0
28.02.2017 00:00:00 -3,8 -4,6 5 3 - - S 0,0
27.02.2017 23:00:00 -3,1 -4,2 5 3 - - S 0,0
27.02.2017 22:00:00 -2,5 -3,7 4 2 - - S 0,0
27.02.2017 21:00:00 -2,0 -3,7 5 3 - - S 0,0
27.02.2017 20:00:00 -0,2 -2,0 11 6 - - E 0,0
27.02.2017 19:00:00 2,1 -1,5 8 4 - - WSW 0,0
27.02.2017 18:00:00 2,4 -1,1 4 2 - - SSW 0,0
27.02.2017 17:00:00 3,9 -1,2 8 4 - - SSW 0,0
27.02.2017 16:00:00 5,3 -1,7 11 6 - - WSW 0,0
27.02.2017 15:00:00 5,4 -1,9 13 7 - - WSW 0,0
27.02.2017 14:00:00 5,2 - 18 10 - - SSE 0,0
27.02.2017 13:00:00 5,3 -1,1 15 8 - - SW 0,0
27.02.2017 12:00:00 4,7 - 15 8 - - SSE 0,0
27.02.2017 11:00:00 3,5 - 15 8 - - SSW 0,0
27.02.2017 10:00:00 2,4 -1,9 5 3 - - E 0,0
27.02.2017 09:00:00 0,8 -1,5 9 5 - - S 0,0
27.02.2017 08:00:00 -0,8 -2,0 8 4 - - S 0,0
27.02.2017 07:00:00 0,1 -1,9 9 5 - - SSW 0,0
27.02.2017 06:00:00 0,4 -1,3 13 7 - - ESE 0,0
27.02.2017 05:00:00 0,5 -1,2 13 7 - - SSE 0,0
27.02.2017 04:00:00 1,0 -1,6 16 9 - - S 0,0
27.02.2017 03:00:00 0,5 -1,2 21 11 - - S 0,0
27.02.2017 02:00:00 0,9 -0,9 18 10 - - SW 0,0
27.02.2017 01:00:00 1,5 -0,6 18 10 - - SSW 0,0
27.02.2017 00:00:00 1,7 -0,1 21 11 - - SSW 0,0
26.02.2017 23:00:00 2,4 0,3 18 10 - - SSW 0,0
26.02.2017 22:00:00 2,6 0,9 8 4 - - S 0,0
26.02.2017 21:00:00 2,7 1,3 8 4 - - WNW 0,0
26.02.2017 20:00:00 3,3 1,8 21 11 - - WSW 0,0
26.02.2017 19:00:00 4,4 2,9 15 8 - - W 1,4
26.02.2017 18:00:00 4,7 4,0 2 1 - - S 3,4
26.02.2017 17:00:00 5,0 3,8 11 6 - - ESE 3,2
26.02.2017 16:00:00 5,3 3,9 13 7 - - ESE 2,0
26.02.2017 15:00:00 6,8 3,6 13 7 - - ESE 0,0
26.02.2017 14:00:00 7,4 3,1 9 5 - - S 0,0
26.02.2017 13:00:00 7,3 3,8 13 7 - - S 0,0
26.02.2017 12:00:00 8,0 4,2 15 8 - - S 0,0
26.02.2017 11:00:00 6,7 3,3 18 10 - - S 0,0
26.02.2017 10:00:00 5,6 3,2 22 12 - - SSE 0,2
26.02.2017 09:00:00 4,9 2,9 26 14 - - SSE 0,2
26.02.2017 08:00:00 5,3 2,0 26 14 - - SE 0,0
26.02.2017 07:00:00 5,0 2,0 28 15 - - SE 0,0
26.02.2017 06:00:00 4,1 2,1 26 14 - - SSE 0,0
26.02.2017 05:00:00 3,9 1,9 26 14 - - SSE 0,0
26.02.2017 04:00:00 3,7 1,8 24 13 - - SE 0,0
26.02.2017 03:00:00 4,0 2,0 21 11 - - SSE 0,0
26.02.2017 02:00:00 3,0 1,4 9 5 - - SSE 0,0
26.02.2017 01:00:00 3,1 1,7 4 2 - - S 0,0
26.02.2017 00:00:00 3,1 1,6 8 4 - - S 0,0
25.02.2017 23:00:00 3,5 2,2 5 3 - - SSE 0,0
25.02.2017 22:00:00 4,0 2,3 8 4 - - SE 0,0
25.02.2017 21:00:00 3,7 2,6 8 4 - - SE 0,0
25.02.2017 20:00:00 3,0 2,0 5 3 - - S 0,6
25.02.2017 19:00:00 4,4 2,3 13 7 - - W 0,2
25.02.2017 18:00:00 4,0 1,6 8 4 - - W 0,0
25.02.2017 17:00:00 6,2 3,0 8 4 - - NW 0,0
25.02.2017 16:00:00 6,6 2,4 16 9 48 26 WNW 0,0
25.02.2017 15:00:00 8,5 2,6 26 14 - - WNW 0,0
25.02.2017 14:00:00 8,6 3,7 31 17 46 25 WNW 0,0
25.02.2017 13:00:00 6,4 4,8 35 19 50 27 WNW 0,2
25.02.2017 12:00:00 8,9 6,1 31 17 54 29 WNW 0,2
25.02.2017 11:00:00 8,2 6,8 28 15 - - WNW 0,0
25.02.2017 10:00:00 9,0 7,6 24 13 - - WSW 2,6
25.02.2017 09:00:00 8,4 6,9 21 11 - - S 0,0
25.02.2017 08:00:00 8,4 6,7 21 11 - - S 0,4
25.02.2017 07:00:00 9,2 6,5 24 13 - - SSW 0,0
25.02.2017 06:00:00 8,8 6,2 22 12 48 26 S 0,0
25.02.2017 05:00:00 8,0 5,7 34 18 50 27 SSE 0,0
25.02.2017 04:00:00 8,5 5,9 29 16 54 29 S 0,0
25.02.2017 03:00:00 6,8 4,8 35 19 46 25 SE 0,0
25.02.2017 02:00:00 6,2 4,5 34 18 50 27 SE 0,0
25.02.2017 01:00:00 5,8 4,0 29 16 50 27 SSE 0,0
25.02.2017 00:00:00 5,4 3,5 35 19 54 29 S 0,0
24.02.2017 23:00:00 4,9 2,8 39 21 57 31 S 0,0
24.02.2017 22:00:00 4,3 2,2 35 19 50 27 SSE 0,2
24.02.2017 21:00:00 3,3 1,8 29 16 50 27 ESE 0,0
24.02.2017 20:00:00 2,6 1,5 31 17 46 25 SE 1,0
24.02.2017 19:00:00 2,1 1,0 29 16 - - SSE 1,4
24.02.2017 18:00:00 2,3 1,3 24 13 - - SE 0,8
24.02.2017 17:00:00 2,5 1,0 21 11 - - S 0,0
24.02.2017 16:00:00 3,6 0,2 16 9 - - SSE 0,0
24.02.2017 15:00:00 3,6 0,2 15 8 - - S 0,0
24.02.2017 14:00:00 3,7 0,6 16 9 - - S 0,0
24.02.2017 13:00:00 4,0 -0,4 16 9 - - SSE 0,0
24.02.2017 12:00:00 3,7 -1,5 13 7 - - SE 0,0
24.02.2017 11:00:00 1,4 0,0 5 3 - - SSW 0,0
24.02.2017 10:00:00 -0,3 -2,1 4 2 - - S 0,0
24.02.2017 09:00:00 -2,5 -3,2 0 0 - - N 0,0
24.02.2017 08:00:00 -4,4 -5,3 0 0 - - N 0,0
24.02.2017 07:00:00 -3,5 -4,6 0 0 - - N 0,0
24.02.2017 06:00:00 -3,4 -4,2 0 0 - - N 0,0
24.02.2017 05:00:00 -4,2 -5,4 0 0 - - N 0,0
24.02.2017 04:00:00 -3,3 -4,4 0 0 - - N 0,0
24.02.2017 03:00:00 -3,9 -4,5 0 0 - - N 0,0
24.02.2017 02:00:00 -3,5 -4,2 0 0 - - N 0,0
24.02.2017 01:00:00 -3,9 -4,5 0 0 - - N 0,0
24.02.2017 00:00:00 -2,9 -3,8 0 0 - - N 0,0
23.02.2017 23:00:00 -1,6 -2,3 5 3 - - E 0,0
23.02.2017 22:00:00 -1,5 -2,5 2 1 - - ENE 0,0
23.02.2017 21:00:00 -0,4 -1,4 5 3 - - ESE 0,0
23.02.2017 20:00:00 -0,7 -1,9 2 1 - - SSE 0,0
23.02.2017 19:00:00 -0,5 -1,8 2 1 - - E 0,0
23.02.2017 18:00:00 0,0 -1,9 0 0 - - N 0,0
23.02.2017 17:00:00 1,9 -1,4 5 3 - - NNE 0,0
23.02.2017 16:00:00 3,6 -0,8 11 6 - - N 0,0
23.02.2017 15:00:00 3,9 -1,3 15 8 - - N 0,0
23.02.2017 14:00:00 4,2 -0,4 18 10 - - N 0,0
23.02.2017 13:00:00 4,0 0,4 15 8 - - NNE 0,0
23.02.2017 12:00:00 3,7 0,4 15 8 - - NNE 0,0
23.02.2017 11:00:00 3,2 1,2 11 6 - - N 0,0
23.02.2017 10:00:00 2,7 0,9 9 5 - - NNE 0,0
23.02.2017 09:00:00 1,9 1,0 5 3 - - W 1,0
23.02.2017 08:00:00 1,3 0,2 4 2 - - NNW 1,2
23.02.2017 07:00:00 1,8 0,8 4 2 - - E 0,8
23.02.2017 06:00:00 1,9 1,2 2 1 - - NNW 0,0
23.02.2017 05:00:00 1,5 1,4 5 3 - - E 0,0
23.02.2017 04:00:00 -0,6 -1,1 0 0 - - N 0,0
23.02.2017 03:00:00 -0,7 -1,3 0 0 - - N 0,0
23.02.2017 02:00:00 0,1 -0,6 2 1 - - SE 0,0
23.02.2017 01:00:00 0,4 -0,2 8 4 - - ESE 0,0
23.02.2017 00:00:00 0,2 -0,5 4 2 - - SE 0,0
22.02.2017 23:00:00 0,5 -0,2 8 4 - - E 0,0
22.02.2017 22:00:00 1,9 1,1 9 5 - - E 0,0
22.02.2017 21:00:00 1,9 1,0 9 5 - - E 0,0
22.02.2017 20:00:00 1,3 0,5 8 4 - - S 0,0
22.02.2017 19:00:00 1,3 0,5 9 5 - - NW 0,0
22.02.2017 18:00:00 2,4 1,5 8 4 - - NNW 0,2
22.02.2017 17:00:00 3,5 1,4 11 6 - - NNW 0,0
22.02.2017 16:00:00 5,3 3,2 24 13 63 34 WNW 0,2
22.02.2017 15:00:00 4,5 2,7 35 19 67 36 NW 0,4
22.02.2017 14:00:00 4,8 2,7 39 21 78 42 NW 0,4

tt = temperature
td = dewpoint
ff = wind speed
fx = gusts
dd = wind direction
rr = precipitation

Next stations